Island City, Indiana
Current Conditions -  °F | °C
As of 9:15 AM on Monday 20 Oct 2014 (Local Time) from KDCY Reporting Station
Overcast Overcast  
Wind Chill: 52°   Ceiling: 3800
Heat Index: 52°   Visibility: 10mi
Dew Point: 48°   Wind: 12mph
Humidity: 87%   Direction: 210°SSW
Pressure: 29.98"   Gusts: NA
Location:  39.0608°N, 87.1852°W
Report Text: KDCY 201315Z AUTO 21010KT 10SM BKN038 OVC100 11/09 A2998 RMK AO2 T01110090
Loading
Personal Weather Stations






























Interactive Weather Map New forecast layout! Learn more

10-Day Weather Forecast

Advertisements
Track Severe Weather on mobile